sensor_id;sensor_type;location;lat;lon;timestamp;pressure;altitude;pressure_sealevel;temperature;humidity
60055;BME280;45930;53.514;55.904;2022-09-09T00:00:59;38343.84;;;-149.77;50.46
60055;BME280;45930;53.514;55.904;2022-09-09T00:02:24;38187.81;;;-149.77;50.44
60055;BME280;45930;53.514;55.904;2022-09-09T00:04:59;38885.13;;;-149.77;50.22
60055;BME280;45930;53.514;55.904;2022-09-09T00:06:24;38187.81;;;-149.77;50.48
60055;BME280;45930;53.514;55.904;2022-09-09T00:10:03;37127.25;;;-149.77;50.58
60055;BME280;45930;53.514;55.904;2022-09-09T00:11:12;36767.88;;;-149.77;50.57
60055;BME280;45930;53.514;55.904;2022-09-09T00:12:22;36900.16;;;-149.77;50.61
60055;BME280;45930;53.514;55.904;2022-09-09T00:13:33;36647.41;;;-149.77;50.58
60055;BME280;45930;53.514;55.904;2022-09-09T00:15:46;34766.22;;;-149.77;50.72
60055;BME280;45930;53.514;55.904;2022-09-09T00:17:00;35101.72;;;-149.77;50.73
60055;BME280;45930;53.514;55.904;2022-09-09T00:19:38;34630.03;;;-149.77;50.80
60055;BME280;45930;53.514;55.904;2022-09-09T00:20:48;33828.91;;;-149.77;50.86
60055;BME280;45930;53.514;55.904;2022-09-09T00:22:05;32122.59;;;-149.77;50.96
60055;BME280;45930;53.514;55.904;2022-09-09T00:23:22;31310.13;;;-149.77;50.98
60055;BME280;45930;53.514;55.904;2022-09-09T00:24:53;31523.09;;;-149.77;50.98
60055;BME280;45930;53.514;55.904;2022-09-09T00:28:31;31592.13;;;-149.77;50.91
60055;BME280;45930;53.514;55.904;2022-09-09T00:29:56;32546.63;;;-149.77;50.91
60055;BME280;45930;53.514;55.904;2022-09-09T00:31:12;31570.44;;;-149.77;50.97
60055;BME280;45930;53.514;55.904;2022-09-09T00:32:16;30907.91;;;-149.77;51.00
60055;BME280;45930;53.514;55.904;2022-09-09T00:33:23;30235.66;;;-149.77;51.06
60055;BME280;45930;53.514;55.904;2022-09-09T00:34:26;30765.97;;;-149.77;51.06
60055;BME280;45930;53.514;55.904;2022-09-09T00:35:32;28294.50;;;-149.77;51.18
60055;BME280;45930;53.514;55.904;2022-09-09T00:36:35;27427.66;;;-149.77;51.21
60055;BME280;45930;53.514;55.904;2022-09-09T00:37:38;26584.69;;;-149.77;51.24
60055;BME280;45930;53.514;55.904;2022-09-09T00:38:47;25930.91;;;-149.77;51.31
60055;BME280;45930;53.514;55.904;2022-09-09T00:39:50;25458.34;;;-149.77;51.18
60055;BME280;45930;53.514;55.904;2022-09-09T00:40:58;24416.97;;;-149.77;51.42
60055;BME280;45930;53.514;55.904;2022-09-09T00:42:24;24716.19;;;-149.77;51.28
60055;BME280;45930;53.514;55.904;2022-09-09T00:43:30;22718.72;;;-149.77;51.51
60055;BME280;45930;53.514;55.904;2022-09-09T00:44:34;22468.84;;;-149.77;51.46
60055;BME280;45930;53.514;55.904;2022-09-09T00:45:59;23698.63;;;-149.77;51.35
60055;BME280;45930;53.514;55.904;2022-09-09T00:48:12;24281.16;;;-149.77;51.21
60055;BME280;45930;53.514;55.904;2022-09-09T00:49:25;24505.56;;;-149.77;51.30
60055;BME280;45930;53.514;55.904;2022-09-09T00:50:51;24877.59;;;-149.77;51.35
60055;BME280;45930;53.514;55.904;2022-09-09T00:56:42;22954.81;;;-149.77;51.34
60055;BME280;45930;53.514;55.904;2022-09-09T00:57:36;22748.22;;;-149.77;51.41
60055;BME280;45930;53.514;55.904;2022-09-09T00:58:37;20413.53;;;-149.77;51.58
60055;BME280;45930;53.514;55.904;2022-09-09T01:00:51;19570.09;;;-149.77;51.66
60055;BME280;45930;53.514;55.904;2022-09-09T01:01:53;18099.94;;;-149.77;51.75
60055;BME280;45930;53.514;55.904;2022-09-09T01:03:59;16490.84;;;-149.77;51.75
60055;BME280;45930;53.514;55.904;2022-09-09T01:05:36;15145.53;;;-149.77;51.83
60055;BME280;45930;53.514;55.904;2022-09-09T01:06:43;14102.97;;;-149.77;51.88
60055;BME280;45930;53.514;55.904;2022-09-09T01:07:49;13098.00;;;-149.77;51.98
60055;BME280;45930;53.514;55.904;2022-09-09T01:10:17;14605.56;;;-149.77;51.78
60055;BME280;45930;53.514;55.904;2022-09-09T01:11:25;13349.22;;;-149.77;52.00
60055;BME280;45930;53.514;55.904;2022-09-09T01:12:42;13600.47;;;-149.77;51.90
60055;BME280;45930;53.514;55.904;2022-09-09T01:13:45;13349.22;;;-149.77;51.87
60055;BME280;45930;53.514;55.904;2022-09-09T01:14:52;14354.25;;;-149.77;51.73
60055;BME280;45930;53.514;55.904;2022-09-09T01:16:02;14856.88;;;-149.77;51.80
60055;BME280;45930;53.514;55.904;2022-09-09T01:17:30;15610.94;;;-149.77;51.78
60055;BME280;45930;53.514;55.904;2022-09-09T01:18:44;16365.13;;;-149.77;51.73
60055;BME280;45930;53.514;55.904;2022-09-09T01:20:02;16113.72;;;-149.77;51.80
60055;BME280;45930;53.514;55.904;2022-09-09T01:25:18;13098.00;;;-149.77;52.10
60055;BME280;45930;53.514;55.904;2022-09-09T01:26:46;10586.72;;;-149.77;52.08
60055;BME280;45930;53.514;55.904;2022-09-09T01:27:49;10084.66;;;-149.77;52.18
60055;BME280;45930;53.514;55.904;2022-09-09T01:28:52;8578.84;;;-149.77;52.27
60055;BME280;45930;53.514;55.904;2022-09-09T01:29:53;7826.19;;;-149.77;52.38
60055;BME280;45930;53.514;55.904;2022-09-09T01:30:56;7073.66;;;-149.77;52.41
60055;BME280;45930;53.514;55.904;2022-09-09T01:32:02;7826.19;;;-149.77;52.30
60055;BME280;45930;53.514;55.904;2022-09-09T01:33:03;6822.84;;;-149.77;52.45
60055;BME280;45930;53.514;55.904;2022-09-09T01:34:13;5819.75;;;-149.77;52.47
60055;BME280;45930;53.514;55.904;2022-09-09T01:37:04;5569.00;;;-149.77;52.48
60055;BME280;45930;53.514;55.904;2022-09-09T01:38:06;6822.84;;;-149.77;52.23
60055;BME280;45930;53.514;55.904;2022-09-09T01:39:07;5318.31;;;-149.77;52.46
60055;BME280;45930;53.514;55.904;2022-09-09T01:40:08;3563.75;;;-149.77;52.70
60055;BME280;45930;53.514;55.904;2022-09-09T01:41:09;3062.59;;;-149.77;52.72
60055;BME280;45930;53.514;55.904;2022-09-09T01:42:13;2561.53;;;-149.77;52.83
60055;BME280;45930;53.514;55.904;2022-09-09T01:43:15;3563.75;;;-149.77;52.55
60055;BME280;45930;53.514;55.904;2022-09-09T01:44:15;3313.16;;;-149.77;52.75
60055;BME280;45930;53.514;55.904;2022-09-09T01:45:18;3062.59;;;-149.77;52.67
60055;BME280;45930;53.514;55.904;2022-09-09T01:46:21;2561.53;;;-149.77;52.78
60055;BME280;45930;53.514;55.904;2022-09-09T01:47:22;2060.50;;;-149.77;52.67
60055;BME280;45930;53.514;55.904;2022-09-09T01:48:24;1810.00;;;-149.77;52.74
60055;BME280;45930;53.514;55.904;2022-09-09T01:49:25;2060.50;;;-149.77;52.77
60055;BME280;45930;53.514;55.904;2022-09-09T01:50:26;2561.53;;;-149.77;52.61
60055;BME280;45930;53.514;55.904;2022-09-09T01:51:27;2311.00;;;-149.77;52.74
60055;BME280;45930;53.514;55.904;2022-09-09T01:52:30;4566.25;;;-149.77;52.38
60055;BME280;45930;53.514;55.904;2022-09-09T01:53:31;3313.16;;;-149.77;52.70
60055;BME280;45930;53.514;55.904;2022-09-09T01:54:32;3313.16;;;-149.77;52.67
60055;BME280;45930;53.514;55.904;2022-09-09T01:55:42;2561.53;;;-149.77;52.72
60055;BME280;45930;53.514;55.904;2022-09-09T02:00:12;4566.25;;;-149.77;52.47
60055;BME280;45930;53.514;55.904;2022-09-09T02:01:47;4816.91;;;-149.77;52.36
60055;BME280;45930;53.514;55.904;2022-09-09T02:05:39;5819.75;;;-149.77;52.33
60055;BME280;45930;53.514;55.904;2022-09-09T02:06:40;7324.47;;;-149.77;52.16
60055;BME280;45930;53.514;55.904;2022-09-09T02:07:46;9080.72;;;-149.77;51.94
60055;BME280;45930;53.514;55.904;2022-09-09T02:08:50;8829.78;;;-149.77;51.98
60055;BME280;45930;53.514;55.904;2022-09-09T02:10:00;8578.84;;;-149.77;52.05
60055;BME280;45930;53.514;55.904;2022-09-09T02:12:13;8327.94;;;-149.77;52.09
60055;BME280;45930;53.514;55.904;2022-09-09T02:13:17;9080.72;;;-149.77;51.95
60055;BME280;45930;53.514;55.904;2022-09-09T02:14:25;9331.69;;;-149.77;51.99
60055;BME280;45930;53.514;55.904;2022-09-09T02:15:52;10084.66;;;-149.77;51.95
60055;BME280;45930;53.514;55.904;2022-09-09T02:16:59;9331.69;;;-149.77;52.09
60055;BME280;45930;53.514;55.904;2022-09-09T02:18:06;8077.06;;;-149.77;52.18
60055;BME280;45930;53.514;55.904;2022-09-09T02:20:14;8077.06;;;-149.77;52.23
60055;BME280;45930;53.514;55.904;2022-09-09T02:21:16;8077.06;;;-149.77;52.13
60055;BME280;45930;53.514;55.904;2022-09-09T02:22:19;7073.66;;;-149.77;52.33
60055;BME280;45930;53.514;55.904;2022-09-09T02:23:22;6572.03;;;-149.77;52.38
60055;BME280;45930;53.514;55.904;2022-09-09T02:24:23;5819.75;;;-149.77;52.38
60055;BME280;45930;53.514;55.904;2022-09-09T02:25:28;7073.66;;;-149.77;52.31
60055;BME280;45930;53.514;55.904;2022-09-09T02:26:31;6572.03;;;-149.77;52.22
60055;BME280;45930;53.514;55.904;2022-09-09T02:27:33;8077.06;;;-149.77;52.13
60055;BME280;45930;53.514;55.904;2022-09-09T02:28:36;6572.03;;;-149.77;52.33
60055;BME280;45930;53.514;55.904;2022-09-09T02:29:42;6321.25;;;-149.77;52.14
60055;BME280;45930;53.514;55.904;2022-09-09T02:30:45;6572.03;;;-149.77;52.30
60055;BME280;45930;53.514;55.904;2022-09-09T02:31:48;7575.31;;;-149.77;52.21
60055;BME280;45930;53.514;55.904;2022-09-09T02:32:52;7575.31;;;-149.77;52.23
60055;BME280;45930;53.514;55.904;2022-09-09T02:34:00;8829.78;;;-149.77;52.08
60055;BME280;45930;53.514;55.904;2022-09-09T02:35:06;6822.84;;;-149.77;52.33
60055;BME280;45930;53.514;55.904;2022-09-09T02:36:10;6822.84;;;-149.77;52.29
60055;BME280;45930;53.514;55.904;2022-09-09T02:37:15;7073.66;;;-149.77;52.22
60055;BME280;45930;53.514;55.904;2022-09-09T02:38:20;7073.66;;;-149.77;52.19
60055;BME280;45930;53.514;55.904;2022-09-09T02:39:22;7073.66;;;-149.77;52.22
60055;BME280;45930;53.514;55.904;2022-09-09T02:40:23;5819.75;;;-149.77;52.30
60055;BME280;45930;53.514;55.904;2022-09-09T02:41:27;4566.25;;;-149.77;52.57
60055;BME280;45930;53.514;55.904;2022-09-09T02:42:31;4816.91;;;-149.77;52.50
60055;BME280;45930;53.514;55.904;2022-09-09T02:43:33;3313.16;;;-149.77;52.55
60055;BME280;45930;53.514;55.904;2022-09-09T02:44:35;3563.75;;;-149.77;52.51
60055;BME280;45930;53.514;55.904;2022-09-09T02:45:44;4315.59;;;-149.77;52.39
60055;BME280;45930;53.514;55.904;2022-09-09T02:47:33;3814.34;;;-149.77;52.47
60055;BME280;45930;53.514;55.904;2022-09-09T02:51:19;1309.09;;;-149.77;52.65
60055;BME280;45930;53.514;55.904;2022-09-09T02:56:49;3313.16;;;-149.77;52.47
60055;BME280;45930;53.514;55.904;2022-09-09T02:57:53;3313.16;;;-149.77;52.42
60055;BME280;45930;53.514;55.904;2022-09-09T02:58:55;2311.00;;;-149.77;52.63
60055;BME280;45930;53.514;55.904;2022-09-09T02:59:59;2812.06;;;-149.77;52.52
60055;BME280;45930;53.514;55.904;2022-09-09T03:01:01;4566.25;;;-149.77;52.37
60055;BME280;45930;53.514;55.904;2022-09-09T03:02:03;2812.06;;;-149.77;52.43
60055;BME280;45930;53.514;55.904;2022-09-09T03:03:05;1058.66;;;-149.77;52.69
60055;BME280;45930;53.514;55.904;2022-09-09T03:04:06;1810.00;;;-149.77;52.60
60055;BME280;45930;53.514;55.904;2022-09-09T03:05:07;2311.00;;;-149.77;52.54
60055;BME280;45930;53.514;55.904;2022-09-09T03:06:08;808.22;;;-149.77;52.65
60055;BME280;45930;53.514;55.904;2022-09-09T03:07:11;-193.31;;;-149.77;52.81
60055;BME280;45930;53.514;55.904;2022-09-09T03:08:13;557.81;;;-149.77;52.76
60055;BME280;45930;53.514;55.904;2022-09-09T03:09:14;-193.31;;;-149.77;52.87
60055;BME280;45930;53.514;55.904;2022-09-09T03:10:14;-443.63;;;-149.77;52.77
60055;BME280;45930;53.514;55.904;2022-09-09T03:11:16;-1695.09;;;-149.77;52.92
60055;BME280;45930;53.514;55.904;2022-09-09T03:12:17;-944.28;;;-149.77;52.79
60055;BME280;45930;53.514;55.904;2022-09-09T03:13:18;-1695.09;;;-149.77;52.95
60055;BME280;45930;53.514;55.904;2022-09-09T03:14:19;-693.97;;;-149.77;52.84
60055;BME280;45930;53.514;55.904;2022-09-09T03:15:24;1559.53;;;-149.77;52.55
60055;BME280;45930;53.514;55.904;2022-09-09T03:16:30;808.22;;;-149.77;52.62
60055;BME280;45930;53.514;55.904;2022-09-09T03:17:31;1559.53;;;-149.77;52.51
60055;BME280;45930;53.514;55.904;2022-09-09T03:18:32;1810.00;;;-149.77;52.52
60055;BME280;45930;53.514;55.904;2022-09-09T03:19:33;2812.06;;;-149.77;52.30
60055;BME280;45930;53.514;55.904;2022-09-09T03:20:35;5569.00;;;-149.77;52.03
60055;BME280;45930;53.514;55.904;2022-09-09T03:21:36;9080.72;;;-149.77;51.66
60055;BME280;45930;53.514;55.904;2022-09-09T03:22:37;8077.06;;;-149.77;51.80
60055;BME280;45930;53.514;55.904;2022-09-09T03:23:38;8829.78;;;-149.77;51.72
60055;BME280;45930;53.514;55.904;2022-09-09T03:24:38;9080.72;;;-149.77;51.65
60055;BME280;45930;53.514;55.904;2022-09-09T03:25:39;9833.66;;;-149.77;51.67
60055;BME280;45930;53.514;55.904;2022-09-09T03:26:41;14856.88;;;-149.77;51.18
60055;BME280;45930;53.514;55.904;2022-09-09T03:27:45;17119.47;;;-149.77;51.00
60055;BME280;45930;53.514;55.904;2022-09-09T03:28:45;19963.28;;;-149.77;50.78
60055;BME280;45930;53.514;55.904;2022-09-09T03:29:46;19845.34;;;-149.77;50.93
60055;BME280;45930;53.514;55.904;2022-09-09T03:30:47;22459.00;;;-149.77;50.66
60055;BME280;45930;53.514;55.904;2022-09-09T03:31:49;25777.31;;;-149.77;50.47
60055;BME280;45930;53.514;55.904;2022-09-09T03:32:51;24466.19;;;-149.77;50.58
60055;BME280;45930;53.514;55.904;2022-09-09T03:33:52;25710.38;;;-149.77;50.38
60055;BME280;45930;53.514;55.904;2022-09-09T03:34:52;26635.88;;;-149.77;50.55
60055;BME280;45930;53.514;55.904;2022-09-09T03:35:54;27652.25;;;-149.77;50.39
60055;BME280;45930;53.514;55.904;2022-09-09T03:36:56;32093.00;;;-149.77;50.05
60055;BME280;45930;53.514;55.904;2022-09-09T03:37:57;34825.41;;;-149.77;49.84
60055;BME280;45930;53.514;55.904;2022-09-09T03:38:58;36704.69;;;-149.77;49.59
60055;BME280;45930;53.514;55.904;2022-09-09T03:39:59;37630.81;;;-149.77;49.58
60055;BME280;45930;53.514;55.904;2022-09-09T03:41:00;36992.97;;;-149.77;49.73
60055;BME280;45930;53.514;55.904;2022-09-09T03:42:02;37490.59;;;-149.77;49.63
60055;BME280;45930;53.514;55.904;2022-09-09T03:43:06;37966.59;;;-149.77;49.63
60055;BME280;45930;53.514;55.904;2022-09-09T03:44:06;38106.81;;;-149.77;49.61
60055;BME280;45930;53.514;55.904;2022-09-09T03:45:09;37990.28;;;-149.77;49.63
60055;BME280;45930;53.514;55.904;2022-09-09T03:46:11;37425.44;;;-149.77;49.69
60055;BME280;45930;53.514;55.904;2022-09-09T03:47:11;36402.59;;;-149.77;49.88
60055;BME280;45930;53.514;55.904;2022-09-09T03:48:12;36947.56;;;-149.77;49.71
60055;BME280;45930;53.514;55.904;2022-09-09T03:49:13;38756.72;;;-149.77;49.45
60055;BME280;45930;53.514;55.904;2022-09-09T03:50:14;42413.13;;;-149.77;48.97
60055;BME280;45930;53.514;55.904;2022-09-09T03:51:15;43831.13;;;-149.77;48.69
60055;BME280;45930;53.514;55.904;2022-09-09T03:52:16;44416.69;;;-149.77;48.64
60055;BME280;45930;53.514;55.904;2022-09-09T03:53:20;44280.19;;;-149.77;48.81
60055;BME280;45930;53.514;55.904;2022-09-09T03:54:23;46415.34;;;-149.77;48.20
60055;BME280;45930;53.514;55.904;2022-09-09T03:55:24;47415.06;;;-149.77;47.94
60055;BME280;45930;53.514;55.904;2022-09-09T03:56:25;48270.44;;;-149.77;47.65
60055;BME280;45930;53.514;55.904;2022-09-09T03:57:25;48925.97;;;-149.77;47.29
60055;BME280;45930;53.514;55.904;2022-09-09T03:58:27;49274.59;;;-149.77;47.20
60055;BME280;45930;53.514;55.904;2022-09-09T03:59:27;49464.75;;;-149.77;47.09
60055;BME280;45930;53.514;55.904;2022-09-09T04:00:28;49639.06;;;-149.77;46.95
60055;BME280;45930;53.514;55.904;2022-09-09T04:01:30;49825.28;;;-149.77;46.70
60055;BME280;45930;53.514;55.904;2022-09-09T04:02:31;49985.75;;;-149.77;46.31
60055;BME280;45930;53.514;55.904;2022-09-09T04:03:32;50072.94;;;-149.77;46.33
60055;BME280;45930;53.514;55.904;2022-09-09T04:04:33;50144.25;;;-149.77;46.33
60055;BME280;45930;53.514;55.904;2022-09-09T04:05:33;50201.72;;;-149.77;46.24
60055;BME280;45930;53.514;55.904;2022-09-09T04:06:34;50229.44;;;-149.77;46.17
60055;BME280;45930;53.514;55.904;2022-09-09T04:07:35;50255.19;;;-149.77;45.91
60055;BME280;45930;53.514;55.904;2022-09-09T04:08:36;50338.41;;;-149.77;45.84
60055;BME280;45930;53.514;55.904;2022-09-09T04:09:37;50419.66;;;-149.77;46.16
60055;BME280;45930;53.514;55.904;2022-09-09T04:10:38;50473.16;;;-149.77;46.33
60055;BME280;45930;53.514;55.904;2022-09-09T04:11:39;50492.97;;;-149.77;46.54
60055;BME280;45930;53.514;55.904;2022-09-09T04:12:40;50463.25;;;-149.77;46.56
60055;BME280;45930;53.514;55.904;2022-09-09T04:13:40;50494.94;;;-149.77;46.58
60055;BME280;45930;53.514;55.904;2022-09-09T04:14:42;50500.88;;;-149.77;46.35
60055;BME280;45930;53.514;55.904;2022-09-09T04:15:43;50522.69;;;-149.77;46.45
60055;BME280;45930;53.514;55.904;2022-09-09T04:16:45;50522.69;;;-149.77;46.09
60055;BME280;45930;53.514;55.904;2022-09-09T04:17:46;50483.06;;;-149.77;45.96
60055;BME280;45930;53.514;55.904;2022-09-09T04:18:47;50570.25;;;-149.77;46.16
60055;BME280;45930;53.514;55.904;2022-09-09T04:19:49;50625.72;;;-149.77;46.33
60055;BME280;45930;53.514;55.904;2022-09-09T04:20:51;50623.75;;;-149.77;46.31
60055;BME280;45930;53.514;55.904;2022-09-09T04:21:52;50637.59;;;-149.77;46.31
60055;BME280;45930;53.514;55.904;2022-09-09T04:22:52;50639.59;;;-149.77;46.24
60055;BME280;45930;53.514;55.904;2022-09-09T04:23:53;50685.16;;;-149.77;46.43
60055;BME280;45930;53.514;55.904;2022-09-09T04:24:54;50673.28;;;-149.77;46.36
60055;BME280;45930;53.514;55.904;2022-09-09T04:25:56;50621.75;;;-149.77;46.12
60055;BME280;45930;53.514;55.904;2022-09-09T04:26:57;50494.94;;;-149.77;45.56
60055;BME280;45930;53.514;55.904;2022-09-09T04:27:58;50500.88;;;-149.77;45.41
60055;BME280;45930;53.514;55.904;2022-09-09T04:28:59;50494.94;;;-149.77;45.36
60055;BME280;45930;53.514;55.904;2022-09-09T04:29:59;50459.28;;;-149.77;45.15
60055;BME280;45930;53.514;55.904;2022-09-09T04:31:15;50399.84;;;-149.77;44.95
60055;BME280;45930;53.514;55.904;2022-09-09T04:32:16;50364.19;;;-149.77;44.73
60055;BME280;45930;53.514;55.904;2022-09-09T04:33:18;50366.16;;;-149.77;44.64
60055;BME280;45930;53.514;55.904;2022-09-09T04:34:19;50265.09;;;-149.77;44.39
60055;BME280;45930;53.514;55.904;2022-09-09T04:35:20;50389.94;;;-149.77;44.45
60055;BME280;45930;53.514;55.904;2022-09-09T04:36:21;50368.13;;;-149.77;44.53
60055;BME280;45930;53.514;55.904;2022-09-09T04:37:22;50277.00;;;-149.77;44.16
60055;BME280;45930;53.514;55.904;2022-09-09T04:38:22;50261.16;;;-149.77;44.11
60055;BME280;45930;53.514;55.904;2022-09-09T04:39:23;50318.59;;;-149.77;44.26
60055;BME280;45930;53.514;55.904;2022-09-09T04:40:24;50447.38;;;-149.77;44.45
60055;BME280;45930;53.514;55.904;2022-09-09T04:41:25;50518.72;;;-149.77;44.77
60055;BME280;45930;53.514;55.904;2022-09-09T04:42:26;50546.47;;;-149.77;44.78
60055;BME280;45930;53.514;55.904;2022-09-09T04:43:28;50506.84;;;-149.77;44.66
60055;BME280;45930;53.514;55.904;2022-09-09T04:44:28;50431.53;;;-149.77;44.41
60055;BME280;45930;53.514;55.904;2022-09-09T04:45:30;50356.25;;;-149.77;44.13
60055;BME280;45930;53.514;55.904;2022-09-09T04:46:31;50336.44;;;-149.77;44.08
60055;BME280;45930;53.514;55.904;2022-09-09T04:47:32;50370.13;;;-149.77;44.18
60055;BME280;45930;53.514;55.904;2022-09-09T04:48:35;50284.91;;;-149.77;43.86
60055;BME280;45930;53.514;55.904;2022-09-09T04:49:35;50288.88;;;-149.77;43.85
60055;BME280;45930;53.514;55.904;2022-09-09T04:50:36;50215.56;;;-149.77;43.62
60055;BME280;45930;53.514;55.904;2022-09-09T04:51:37;50209.63;;;-149.77;43.38
60055;BME280;45930;53.514;55.904;2022-09-09T04:52:38;50082.84;;;-149.77;42.94
60055;BME280;45930;53.514;55.904;2022-09-09T04:53:39;50130.38;;;-149.77;42.92
60055;BME280;45930;53.514;55.904;2022-09-09T04:54:40;50168.03;;;-149.77;43.10
60055;BME280;45930;53.514;55.904;2022-09-09T04:55:41;50144.25;;;-149.77;43.09
60055;BME280;45930;53.514;55.904;2022-09-09T04:56:42;50082.84;;;-149.77;42.65
60055;BME280;45930;53.514;55.904;2022-09-09T04:57:43;50100.66;;;-149.77;42.63
60055;BME280;45930;53.514;55.904;2022-09-09T04:58:44;50102.66;;;-149.77;42.46
60055;BME280;45930;53.514;55.904;2022-09-09T04:59:45;50057.06;;;-149.77;42.15
60055;BME280;45930;53.514;55.904;2022-09-09T05:00:46;50055.09;;;-149.77;42.04
60055;BME280;45930;53.514;55.904;2022-09-09T05:01:48;50029.34;;;-149.77;42.11
60055;BME280;45930;53.514;55.904;2022-09-09T05:02:50;50059.06;;;-149.77;42.04
60055;BME280;45930;53.514;55.904;2022-09-09T05:03:51;50025.38;;;-149.77;41.70
60055;BME280;45930;53.514;55.904;2022-09-09T05:04:53;49993.69;;;-149.77;41.48
60055;BME280;45930;53.514;55.904;2022-09-09T05:05:54;49956.03;;;-149.77;41.36
60055;BME280;45930;53.514;55.904;2022-09-09T05:06:57;49967.94;;;-149.77;41.31
60055;BME280;45930;53.514;55.904;2022-09-09T05:08:05;50065.00;;;-149.77;41.86
60055;BME280;45930;53.514;55.904;2022-09-09T05:09:06;50088.78;;;-149.77;41.92
60055;BME280;45930;53.514;55.904;2022-09-09T05:10:07;49979.81;;;-149.77;40.96
60055;BME280;45930;53.514;55.904;2022-09-09T05:11:17;49958.03;;;-149.77;40.92
60055;BME280;45930;53.514;55.904;2022-09-09T05:12:20;49997.63;;;-149.77;41.07
60055;BME280;45930;53.514;55.904;2022-09-09T05:13:20;50011.50;;;-149.77;41.34
60055;BME280;45930;53.514;55.904;2022-09-09T05:14:23;49965.94;;;-149.77;40.96
60055;BME280;45930;53.514;55.904;2022-09-09T05:15:24;49965.94;;;-149.77;40.87
60055;BME280;45930;53.514;55.904;2022-09-09T05:16:24;49963.97;;;-149.77;40.76
60055;BME280;45930;53.514;55.904;2022-09-09T05:17:25;49985.75;;;-149.77;40.87
60055;BME280;45930;53.514;55.904;2022-09-09T05:18:26;49961.97;;;-149.77;41.00
60055;BME280;45930;53.514;55.904;2022-09-09T05:19:27;49965.94;;;-149.77;40.96
60055;BME280;45930;53.514;55.904;2022-09-09T05:20:28;49944.16;;;-149.77;40.84
60055;BME280;45930;53.514;55.904;2022-09-09T05:21:29;49956.03;;;-149.77;40.58
60055;BME280;45930;53.514;55.904;2022-09-09T05:22:31;49904.53;;;-149.77;40.49
60055;BME280;45930;53.514;55.904;2022-09-09T05:23:32;49938.22;;;-149.77;40.83
60055;BME280;45930;53.514;55.904;2022-09-09T05:24:34;49975.84;;;-149.77;40.97
60055;BME280;45930;53.514;55.904;2022-09-09T05:25:35;49926.31;;;-149.77;40.92
60055;BME280;45930;53.514;55.904;2022-09-09T05:26:36;49967.94;;;-149.77;41.07
60055;BME280;45930;53.514;55.904;2022-09-09T05:27:36;49956.03;;;-149.77;41.29
60055;BME280;45930;53.514;55.904;2022-09-09T05:28:38;50011.50;;;-149.77;41.47
60055;BME280;45930;53.514;55.904;2022-09-09T05:29:38;50019.44;;;-149.77;41.59
60055;BME280;45930;53.514;55.904;2022-09-09T05:30:41;50041.22;;;-149.77;41.79
60055;BME280;45930;53.514;55.904;2022-09-09T05:31:42;50084.81;;;-149.77;42.00
60055;BME280;45930;53.514;55.904;2022-09-09T05:32:43;50106.59;;;-149.77;41.84
60055;BME280;45930;53.514;55.904;2022-09-09T05:33:46;50114.53;;;-149.77;42.00
60055;BME280;45930;53.514;55.904;2022-09-09T05:34:47;50122.47;;;-149.77;42.03
60055;BME280;45930;53.514;55.904;2022-09-09T05:35:47;50096.69;;;-149.77;41.97
60055;BME280;45930;53.514;55.904;2022-09-09T05:36:55;50102.66;;;-149.77;42.01
60055;BME280;45930;53.514;55.904;2022-09-09T05:37:59;50106.59;;;-149.77;42.10
60055;BME280;45930;53.514;55.904;2022-09-09T05:39:00;50118.50;;;-149.77;41.95
60055;BME280;45930;53.514;55.904;2022-09-09T05:40:01;50170.00;;;-149.77;42.31
60055;BME280;45930;53.514;55.904;2022-09-09T05:41:03;50229.44;;;-149.77;42.46
60055;BME280;45930;53.514;55.904;2022-09-09T05:42:04;50215.56;;;-149.77;42.47
60055;BME280;45930;53.514;55.904;2022-09-09T05:43:05;50253.22;;;-149.77;42.58
60055;BME280;45930;53.514;55.904;2022-09-09T05:44:05;50158.13;;;-149.77;42.28
60055;BME280;45930;53.514;55.904;2022-09-09T05:45:10;50086.78;;;-149.77;41.96
60055;BME280;45930;53.514;55.904;2022-09-09T05:46:22;50047.16;;;-149.77;41.37
60055;BME280;45930;53.514;55.904;2022-09-09T05:47:24;49967.94;;;-149.77;40.79
60055;BME280;45930;53.514;55.904;2022-09-09T05:48:27;49971.88;;;-149.77;40.74
60055;BME280;45930;53.514;55.904;2022-09-09T05:49:47;49942.16;;;-149.77;40.56
60055;BME280;45930;53.514;55.904;2022-09-09T05:50:52;50009.53;;;-149.77;40.81
60055;BME280;45930;53.514;55.904;2022-09-09T05:51:54;50007.53;;;-149.77;40.98
60055;BME280;45930;53.514;55.904;2022-09-09T05:52:55;49950.09;;;-149.77;40.92
60055;BME280;45930;53.514;55.904;2022-09-09T05:53:56;49975.84;;;-149.77;40.61
60055;BME280;45930;53.514;55.904;2022-09-09T05:54:58;49916.41;;;-149.77;40.46
60055;BME280;45930;53.514;55.904;2022-09-09T05:56:05;49918.41;;;-149.77;40.32
60055;BME280;45930;53.514;55.904;2022-09-09T05:57:06;49912.44;;;-149.77;40.02
60055;BME280;45930;53.514;55.904;2022-09-09T05:58:06;49884.72;;;-149.77;39.86
60055;BME280;45930;53.514;55.904;2022-09-09T05:59:07;49876.78;;;-149.77;40.00
60055;BME280;45930;53.514;55.904;2022-09-09T06:00:09;49920.38;;;-149.77;39.97
60055;BME280;45930;53.514;55.904;2022-09-09T06:01:11;49880.75;;;-149.77;39.91
60055;BME280;45930;53.514;55.904;2022-09-09T06:02:13;49888.69;;;-149.77;39.67
60055;BME280;45930;53.514;55.904;2022-09-09T06:03:14;49872.84;;;-149.77;39.33
60055;BME280;45930;53.514;55.904;2022-09-09T06:04:17;49888.69;;;-149.77;39.70
60055;BME280;45930;53.514;55.904;2022-09-09T06:05:19;49876.78;;;-149.77;39.90
60055;BME280;45930;53.514;55.904;2022-09-09T06:06:22;49864.91;;;-149.77;39.58
60055;BME280;45930;53.514;55.904;2022-09-09T06:07:24;49847.06;;;-149.77;39.68
60055;BME280;45930;53.514;55.904;2022-09-09T06:08:25;49870.84;;;-149.77;39.57